Terminal Aerodrome Forecast
Issued by NWS Newport/Morehead City, NC

Home | Current Version | Previous Version | Text Only | Print | Product List | Glossary On
Versions: 1 2 3 4 5 6 7 8 9 10 11 12 13 14
354
FTUS42 KMHX 280531
TAFEWN
TAF
KEWN 280531Z 2806/2906 23003KT P6SM BKN150
     FM280900 VRB04KT 3SM BR FEW050 SCT150
     FM281300 25005KT P6SM SCT050=

USA.gov is the U.S. government's official web portal to all federal, state and local government web resources and services.